Idaho Falls Regional Airport
KIDA : now visible

Airfield :











YOU CAN JOIN US ON...

 
LOGIN :

Register | Disclaimer

   EN    FR    IT 

 









Legend :    VFR   Marginal VFR   IFR   Intensive IFR   Very Intensive IFR
Visi :
Ceiling :
>= 8 km
>= 3000ft
5 to 8 km
1000 to 3000 ft
1500m to 5 km
500 to 1000 ft
800 to 1500m
200 to 500 ft
< 800m
< 200 ft
Symbols :   Thunderstorms  Fog  Heavy snow  Heavy precipitations  Wind > 20 kt







- Airport Elevation : 4744 ft
- IATA code : IDA


KIDA - Idaho Falls Regional

CURRENT METAR :
  • 222353Z 21014KT 10SM SCT120 23/08 A2992 RMK AO2 PK WND 21026/2257 SLP089 HZ AND VIRGA ALQDS 60000 T02280078 10239 20189 55007

EXPIRED METARs :
  • 222253Z 21020G25KT 10SM SCT120 23/08 A2991 RMK AO2 SLP090 HZ AND VIRGA ALQDS T02330078
  • 222153Z 19014KT 10SM SCT120 BKN150 22/08 A2993 RMK AO2 SLP101 HZ AND VIRGA ALQDS T02170083
  • 222053Z 20017G24KT 10SM SCT120 BKN180 21/09 A2995 RMK AO2 SLP109 60000 T02110089 58001

TAF KIDA
Valid from the 23 at 00:00 until the 24 at 00:00 UTC


222320Z 2300/2324 24012G22KT P6SM SCT120 BKN150
FM230200 36011KT P6SM VCSH FEW040 SCT150
FM230600 35004KT P6SM FEW015
No reported NOTAMs for that airfield.



MET'MAP, your aeronautical weather chart ! - Copyright ORBIFLY December 2007 - Disclaimer

ORBIFLY MET'MAP TEAM :

Programming & Development : Alexandra Zaïnal
Concept & Development : Baudouin d'Aumeries
Co-Development & Prog : Marc-Olivier Méhu
Technical & hardware support : Manuel Goepfert

Contact : metmap@orbifly.com




SOURCES & CREDITS :

   NOAA       Earth
Advisory